| time (UTC) | temp C | wind direction | speed KPH | gust KPH | rain 1hr cm | rain 24hr cm | rain mn cm | humidity % | barometer mb |
| 20260831051543 | 11 | 267 | 6.4 | 16.1 | 0.00 | 0.00 | 0.00 | 69 | 1012.5 |
| 20260831050048 | 11 | 216 | 4.8 | 11.3 | 0.00 | 0.00 | 0.00 | 70 | 1012.5 |
| 20260831044636 | 11 | 189 | 6.4 | 14.5 | 0.00 | 0.05 | 0.00 | 69 | 1012.5 |
| 20260831043044 | 11 | 208 | 11.3 | 24.1 | 0.00 | 0.05 | 0.00 | 68 | 1012.5 |
| 20260831041550 | 12 | 220 | 20.9 | 38.6 | 0.00 | 0.05 | 0.00 | 66 | 1012.2 |
| 20260831040046 | 12 | 239 | 19.3 | 38.6 | 0.00 | 0.05 | 0.00 | 66 | 1012.0 |
| 20260831034544 | 12 | 256 | 24.1 | 33.8 | 0.00 | 0.05 | 0.00 | 65 | 1012.2 |
| 20260831033106 | 12 | 277 | 17.7 | 27.4 | 0.00 | 0.05 | 0.00 | 67 | 1012.5 |
| 20260831031545 | 12 | 252 | 9.7 | 17.7 | 0.00 | 0.05 | 0.00 | 67 | 1012.2 |
| 20260831030045 | 12 | 243 | 14.5 | 25.7 | 0.00 | 0.05 | 0.00 | 66 | 1012.0 |
| 20260831024545 | 12 | 262 | 17.7 | 27.4 | 0.00 | 0.05 | 0.00 | 66 | 1011.8 |
| 20260831023051 | 13 | 265 | 4.8 | 12.9 | 0.00 | 0.05 | 0.00 | 64 | 1011.9 |
| 20260831021545 | 13 | 287 | 12.9 | 19.3 | 0.00 | 0.05 | 0.00 | 62 | 1011.8 |
| 20260831020046 | 13 | 293 | 14.5 | 33.8 | 0.00 | 0.05 | 0.00 | 60 | 1011.5 |
| 20260831014546 | 14 | 287 | 20.9 | 40.2 | 0.00 | 0.05 | 0.00 | 58 | 1011.5 |
| 20260831013049 | 13 | 252 | 11.3 | 17.7 | 0.00 | 0.05 | 0.00 | 61 | 1011.2 |
| 20260831011554 | 13 | 260 | 9.7 | 17.7 | 0.00 | 0.05 | 0.00 | 65 | 1011.4 |
| 20260831010059 | 13 | 264 | 14.5 | 37.0 | 0.00 | 0.05 | 0.00 | 65 | 1011.5 |
| 20260831004544 | 14 | 294 | 22.5 | 30.6 | 0.00 | 0.10 | 0.00 | 61 | 1012.0 |
| 20260831003048 | 14 | 270 | 22.5 | 35.4 | 0.00 | 0.10 | 0.00 | 58 | 1011.5 |
| 20260831001546 | 13 | 289 | 25.7 | 43.5 | 0.00 | 0.10 | 0.00 | 59 | 1011.6 |
| 20260831000048 | 14 | 278 | 25.7 | 43.5 | 0.00 | 0.10 | 0.00 | 59 | 1011.7 |
| 20260830234544 | 15 | 272 | 37.0 | 59.5 | 0.00 | 0.23 | 0.00 | 49 | 1011.6 |
| 20260830233045 | 16 | 268 | 40.2 | 56.3 | 0.00 | 0.23 | 0.00 | 44 | 1011.2 |
| 20260830231546 | 17 | 229 | 33.8 | 51.5 | 0.00 | 0.23 | 0.00 | 42 | 1011.1 |
| 20260830230044 | 17 | 225 | 27.4 | 54.7 | 0.00 | 0.23 | 0.00 | 40 | 1011.1 |
| 20260830224550 | 16 | 272 | 27.4 | 48.3 | 0.00 | 0.25 | 0.00 | 41 | 1010.9 |
| 20260830223045 | 17 | 254 | 30.6 | 48.3 | 0.00 | 0.25 | 0.00 | 40 | 1011.0 |
| 20260830221543 | 17 | 246 | 29.0 | 56.3 | 0.00 | 0.25 | 0.00 | 40 | 1011.3 |
| 20260830220045 | 17 | 225 | 37.0 | 59.5 | 0.00 | 0.25 | 0.00 | 39 | 1011.3 |
| 20260830214547 | 16 | 266 | 32.2 | 56.3 | 0.00 | 0.25 | 0.00 | 41 | 1011.3 |
| 20260830213053 | 16 | 259 | 29.0 | 49.9 | 0.00 | 0.25 | 0.00 | 42 | 1011.6 |
| 20260830211545 | 16 | 237 | 30.6 | 61.2 | 0.00 | 0.25 | 0.00 | 42 | 1011.7 |
| 20260830210046 | 17 | 238 | 32.2 | 51.5 | 0.00 | 0.25 | 0.00 | 41 | 1011.7 |
| 20260830204544 | 17 | 217 | 33.8 | 54.7 | 0.00 | 0.25 | 0.00 | 40 | 1011.6 |
| 20260830203051 | 16 | 225 | 33.8 | 53.1 | 0.00 | 0.25 | 0.00 | 42 | 1011.6 |
| 20260830201546 | 16 | 220 | 25.7 | 48.3 | 0.00 | 0.25 | 0.00 | 44 | 1011.6 |
| 20260830200045 | 16 | 233 | 30.6 | 48.3 | 0.00 | 0.25 | 0.00 | 44 | 1011.7 |
| 20260830194545 | 16 | 261 | 35.4 | 49.9 | 0.00 | 0.25 | 0.00 | 44 | 1011.8 |
| 20260830193048 | 17 | 233 | 29.0 | 53.1 | 0.00 | 0.25 | 0.00 | 40 | 1011.4 |
| 20260830191546 | 17 | 256 | 30.6 | 51.5 | 0.00 | 0.25 | 0.00 | 40 | 1011.6 |
| 20260830190046 | 17 | 239 | 30.6 | 53.1 | 0.00 | 0.25 | 0.00 | 37 | 1011.4 |
| 20260830184550 | 17 | 238 | 33.8 | 61.2 | 0.00 | 0.25 | 0.00 | 40 | 1011.5 |
| 20260830183046 | 17 | 221 | 29.0 | 46.7 | 0.00 | 0.25 | 0.00 | 39 | 1011.4 |
| 20260830181547 | 17 | 216 | 32.2 | 45.1 | 0.00 | 0.25 | 0.00 | 39 | 1011.6 |
| 20260830180046 | 17 | 236 | 29.0 | 43.5 | 0.00 | 0.25 | 0.00 | 39 | 1011.9 |
| 20260830174545 | 16 | 250 | 24.1 | 45.1 | 0.00 | 0.25 | 0.00 | 41 | 1011.6 |
| 20260830173045 | 16 | 286 | 25.7 | 40.2 | 0.00 | 0.25 | 0.00 | 41 | 1011.8 |
| 20260830171546 | 16 | 255 | 27.4 | 45.1 | 0.00 | 0.25 | 0.00 | 41 | 1012.1 |
| 20260830170047 | 16 | 262 | 24.1 | 40.2 | 0.00 | 0.25 | 0.00 | 45 | 1012.1 |
| 20260830164540 | 16 | 234 | 25.7 | 37.0 | 0.00 | 0.25 | 0.00 | 44 | 1012.1 |
| 20260830163045 | 15 | 250 | 17.7 | 32.2 | 0.00 | 0.25 | 0.00 | 46 | 1011.9 |
| 20260830161559 | 15 | 212 | 22.5 | 33.8 | 0.00 | 0.25 | 0.00 | 45 | 1011.9 |
| 20260830160041 | 15 | 269 | 20.9 | 29.0 | 0.00 | 0.25 | 0.00 | 48 | 1012.0 |
| 20260830154546 | 14 | 254 | 19.3 | 30.6 | 0.00 | 0.25 | 0.00 | 49 | 1012.3 |
| 20260830153048 | 13 | 258 | 17.7 | 25.7 | 0.00 | 0.25 | 0.00 | 51 | 1012.5 |
| 20260830151547 | 12 | 40 | 0.0 | 6.4 | 0.00 | 0.25 | 0.00 | 59 | 1012.7 |
| 20260830150111 | 11 | 127 | 4.8 | 11.3 | 0.00 | 0.25 | 0.00 | 66 | 1012.6 |
| 20260830144540 | 10 | 274 | 0.0 | 11.3 | 0.00 | 0.25 | 0.00 | 66 | 1012.5 |
| 20260830143046 | 10 | 260 | 8.0 | 19.3 | 0.00 | 0.25 | 0.00 | 67 | 1012.5 |
| 20260830141545 | 10 | 269 | 12.9 | 22.5 | 0.00 | 0.25 | 0.00 | 68 | 1012.4 |
| 20260830140045 | 10 | 266 | 12.9 | 19.3 | 0.00 | 0.25 | 0.00 | 70 | 1012.6 |
| 20260830134544 | 10 | 270 | 9.7 | 14.5 | 0.00 | 0.25 | 0.00 | 72 | 1012.7 |
| 20260830133048 | 11 | 266 | 8.0 | 11.3 | 0.00 | 0.25 | 0.00 | 72 | 1012.7 |
| 20260830131545 | 11 | 272 | 4.8 | 11.3 | 0.00 | 0.25 | 0.00 | 70 | 1012.7 |
| 20260830130045 | 11 | 268 | 9.7 | 16.1 | 0.00 | 0.25 | 0.00 | 66 | 1012.5 |
| 20260830124544 | 12 | 253 | 9.7 | 16.1 | 0.00 | 0.25 | 0.00 | 66 | 1012.2 |
| 20260830123046 | 12 | 268 | 14.5 | 25.7 | 0.00 | 0.25 | 0.00 | 69 | 1012.1 |
| 20260830121552 | 12 | 268 | 12.9 | 24.1 | 0.00 | 0.25 | 0.00 | 75 | 1012.1 |
| 20260830120043 | 12 | 265 | 12.9 | 22.5 | 0.00 | 0.25 | 0.00 | 81 | 1011.9 |
| 20260830114553 | 12 | 263 | 16.1 | 24.1 | 0.00 | 0.25 | 0.00 | 79 | 1012.1 |
| 20260830113047 | 12 | 243 | 11.3 | 19.3 | 0.00 | 0.25 | 0.00 | 80 | 1012.1 |
| 20260830111546 | 12 | 237 | 19.3 | 29.0 | 0.00 | 0.25 | 0.00 | 81 | 1012.2 |
| 20260830110044 | 12 | 258 | 14.5 | 22.5 | 0.00 | 0.25 | 0.00 | 84 | 1012.1 |
| 20260830104542 | 12 | 258 | 12.9 | 19.3 | 0.00 | 0.25 | 0.00 | 86 | 1012.0 |
| 20260830103046 | 12 | 245 | 4.8 | 9.7 | 0.00 | 0.25 | 0.00 | 86 | 1011.9 |
| 20260830101549 | 12 | 260 | 8.0 | 11.3 | 0.00 | 0.25 | 0.00 | 86 | 1011.9 |
| 20260830100046 | 12 | 242 | 0.0 | 8.0 | 0.00 | 0.25 | 0.00 | 84 | 1011.8 |
| 20260830094546 | 12 | 234 | 0.0 | 11.3 | 0.00 | 0.25 | 0.00 | 83 | 1011.9 |
| 20260830093045 | 12 | 262 | 4.8 | 8.0 | 0.00 | 0.25 | 0.00 | 82 | 1011.8 |
| 20260830091545 | 12 | 254 | 0.0 | 8.0 | 0.00 | 0.25 | 0.00 | 82 | 1012.0 |
| 20260830090056 | 12 | 254 | 3.2 | 14.5 | 0.00 | 0.25 | 0.00 | 82 | 1012.4 |
| 20260830084548 | 12 | 230 | 12.9 | 22.5 | 0.00 | 0.25 | 0.00 | 82 | 1012.7 |
| 20260830083046 | 13 | 214 | 19.3 | 30.6 | 0.00 | 0.25 | 0.00 | 81 | 1012.7 |
| 20260830081545 | 13 | 214 | 16.1 | 29.0 | 0.00 | 0.25 | 0.00 | 85 | 1013.0 |
| 20260830080046 | 13 | 220 | 20.9 | 33.8 | 0.00 | 0.25 | 0.00 | 88 | 1012.9 |
| 20260830074554 | 12 | 194 | 20.9 | 32.2 | 0.00 | 0.25 | 0.00 | 89 | 1012.7 |
| 20260830073046 | 12 | 223 | 14.5 | 24.1 | 0.00 | 0.25 | 0.00 | 89 | 1012.1 |
| 20260830071545 | 12 | 217 | 8.0 | 14.5 | 0.00 | 0.25 | 0.00 | 90 | 1011.9 |
| 20260830070048 | 11 | 209 | 6.4 | 9.7 | 0.00 | 0.25 | 0.00 | 89 | 1011.9 |
| 20260830064545 | 11 | 241 | 3.2 | 12.9 | 0.00 | 0.25 | 0.00 | 89 | 1011.8 |
| 20260830063045 | 11 | 258 | 11.3 | 16.1 | 0.00 | 0.25 | 0.00 | 88 | 1011.8 |
| 20260830061544 | 12 | 293 | 9.7 | 14.5 | 0.00 | 0.25 | 0.00 | 86 | 1011.5 |
| 20260830060049 | 12 | 100 | 0.0 | 0.0 | 0.00 | 0.25 | 0.00 | 84 | 1011.5 |
| 20260830054545 | 12 | 100 | 1.6 | 4.8 | 0.00 | 0.25 | 0.25 | 85 | 1011.3 |
| 20260830053044 | 12 | 99 | 1.6 | 4.8 | 0.00 | 0.25 | 0.25 | 83 | 1011.3 |